Weser, Texas
Current Conditions -  °F | °C
As of 11:35 AM on Friday 19 Dec 2014 (Local Time) from KBEA Reporting Station
Overcast Overcast  
Wind Chill: 55°   Ceiling: 2400
Heat Index: 55°   Visibility: 10mi
Dew Point: 53°   Wind: 14mph
Humidity: 93%   Direction: 30°NNE
Pressure: 30.07"   Gusts: 21mph
Location:  28.6563°N, 97.4287°W
Report Text: KBEA 191735Z AUTO 03012G18KT 10SM SCT009 OVC024 13/12 A3007 RMK AO2 T01300119
Loading
Personal Weather Stations






























Interactive Weather Map New forecast layout! Learn more

10-Day Weather Forecast

Advertisements
Track Severe Weather on mobile